Main page
METAR-TAF:

METAR-TAF

Airports :

Seville Airport

Seville, Spain

latitude: 37-25N, longitude: 005-54W, elevation: 34 m

Current weather observation

The report was made 34 minutes ago, at 09:30 UTC
Wind 3 kt from the North/Northeast
Temperature 28°C
Humidity 45%
Pressure 1015 hPa
Visibility 10 km or more
no clouds below 1500 m and no cumulonimbus

METAR: LEZL 230930Z 02003KT CAVOK 28/15 Q1015 NOSIG

Time: 12:04 (10:04 UTC)

Forecast

The report was made 2 hours and 4 minutes ago, at 08:00 UTC
Forecast valid from 23 at 09 UTC to 24 at 09 UTC
Wind 4 kt from the East/Northeast
Visibility 10 km or more
no clouds below 1500 m and no cumulonimbus
Becoming
from 23 at 16 UTC to 23 at 19 UTC
Wind 10 kt from the West/Southwest
Becoming
from 23 at 22 UTC to 24 at 01 UTC
Wind 2 kt from variable directions

TAF: LEZL 230800Z 2309/2409 06004KT CAVOK TX37/2316Z TN20/2405Z BECMG 2316/2319 24010KT BECMG 2322/2401 VRB02KT

Weather observations and forecasts of more than 4000 airports (METAR and TAF reports).

The available stations are represented by yellow and red dots on the map.

Hover mouse over dot to see the name of the station.

Then click to see weather observations and forecasts.

To change the map : click on the green buttons with a black cross to zoom in, on the green button with a dash to zoom out, or on the green arrows for adjacent maps.


METAR-TAF: